sensor_id;sensor_type;location;lat;lon;timestamp;P1;durP1;ratioP1;P2;durP2;ratioP2
6374;SDS011;35400;45.472;-122.822;2022-12-29T00:01:58;2.47;;;0.93;;
6374;SDS011;35400;45.472;-122.822;2022-12-29T00:04:24;3.93;;;1.20;;
6374;SDS011;35400;45.472;-122.822;2022-12-29T00:06:51;3.57;;;0.87;;
6374;SDS011;35400;45.472;-122.822;2022-12-29T00:09:19;2.33;;;1.00;;
6374;SDS011;35400;45.472;-122.822;2022-12-29T00:11:46;3.43;;;1.17;;
6374;SDS011;35400;45.472;-122.822;2022-12-29T00:14:15;4.10;;;0.80;;
6374;SDS011;35400;45.472;-122.822;2022-12-29T00:17:00;4.97;;;1.10;;
6374;SDS011;35400;45.472;-122.822;2022-12-29T00:19:27;1.70;;;0.90;;
6374;SDS011;35400;45.472;-122.822;2022-12-29T00:22:13;2.83;;;1.10;;
6374;SDS011;35400;45.472;-122.822;2022-12-29T00:24:59;3.00;;;0.93;;
6374;SDS011;35400;45.472;-122.822;2022-12-29T00:27:45;3.03;;;1.43;;
6374;SDS011;35400;45.472;-122.822;2022-12-29T00:30:30;4.53;;;1.40;;
6374;SDS011;35400;45.472;-122.822;2022-12-29T00:33:16;4.40;;;0.90;;
6374;SDS011;35400;45.472;-122.822;2022-12-29T00:36:04;4.37;;;1.40;;
6374;SDS011;35400;45.472;-122.822;2022-12-29T00:38:38;4.30;;;1.20;;
6374;SDS011;35400;45.472;-122.822;2022-12-29T00:41:27;2.60;;;1.10;;
6374;SDS011;35400;45.472;-122.822;2022-12-29T00:44:12;4.17;;;1.40;;
6374;SDS011;35400;45.472;-122.822;2022-12-29T00:46:40;7.35;;;3.55;;
6374;SDS011;35400;45.472;-122.822;2022-12-29T00:51:54;3.10;;;1.10;;
6374;SDS011;35400;45.472;-122.822;2022-12-29T00:54:23;7.00;;;3.00;;
6374;SDS011;35400;45.472;-122.822;2022-12-29T00:56:50;7.80;;;3.40;;
6374;SDS011;35400;45.472;-122.822;2022-12-29T00:59:18;5.90;;;1.90;;
6374;SDS011;35400;45.472;-122.822;2022-12-29T01:01:46;5.35;;;2.05;;
6374;SDS011;35400;45.472;-122.822;2022-12-29T01:04:13;2.20;;;1.10;;
6374;SDS011;35400;45.472;-122.822;2022-12-29T01:11:53;2.20;;;1.05;;
6374;SDS011;35400;45.472;-122.822;2022-12-29T01:21:42;3.50;;;1.30;;
6374;SDS011;35400;45.472;-122.822;2022-12-29T01:24:09;4.20;;;1.40;;
6374;SDS011;35400;45.472;-122.822;2022-12-29T01:33:55;3.13;;;0.80;;
6374;SDS011;35400;45.472;-122.822;2022-12-29T01:36:23;1.60;;;1.10;;
6374;SDS011;35400;45.472;-122.822;2022-12-29T01:38:50;1.50;;;1.10;;
6374;SDS011;35400;45.472;-122.822;2022-12-29T01:41:19;2.10;;;1.30;;
6374;SDS011;35400;45.472;-122.822;2022-12-29T01:43:52;2.60;;;1.50;;
6374;SDS011;35400;45.472;-122.822;2022-12-29T01:51:45;1.20;;;1.13;;
6374;SDS011;35400;45.472;-122.822;2022-12-29T01:54:24;2.80;;;1.20;;
6374;SDS011;35400;45.472;-122.822;2022-12-29T01:57:03;2.13;;;0.93;;
6374;SDS011;35400;45.472;-122.822;2022-12-29T01:59:35;4.37;;;1.37;;
6374;SDS011;35400;45.472;-122.822;2022-12-29T02:02:09;2.33;;;1.00;;
6374;SDS011;35400;45.472;-122.822;2022-12-29T02:04:39;1.83;;;1.20;;
6374;SDS011;35400;45.472;-122.822;2022-12-29T02:07:20;1.20;;;0.90;;
6374;SDS011;35400;45.472;-122.822;2022-12-29T02:09:50;1.67;;;1.10;;
6374;SDS011;35400;45.472;-122.822;2022-12-29T02:12:21;3.63;;;1.10;;
6374;SDS011;35400;45.472;-122.822;2022-12-29T02:14:50;4.43;;;1.50;;
6374;SDS011;35400;45.472;-122.822;2022-12-29T02:20:37;2.97;;;1.00;;
6374;SDS011;35400;45.472;-122.822;2022-12-29T02:28:46;3.17;;;0.90;;
6374;SDS011;35400;45.472;-122.822;2022-12-29T02:31:40;3.20;;;0.90;;
6374;SDS011;35400;45.472;-122.822;2022-12-29T02:42:13;2.57;;;0.83;;
6374;SDS011;35400;45.472;-122.822;2022-12-29T02:50:32;2.07;;;0.93;;
6374;SDS011;35400;45.472;-122.822;2022-12-29T02:53:01;1.60;;;1.20;;
6374;SDS011;35400;45.472;-122.822;2022-12-29T02:55:34;1.97;;;1.23;;
6374;SDS011;35400;45.472;-122.822;2022-12-29T03:00:38;1.97;;;1.00;;
6374;SDS011;35400;45.472;-122.822;2022-12-29T03:06:15;3.47;;;1.03;;
6374;SDS011;35400;45.472;-122.822;2022-12-29T03:12:06;3.00;;;1.50;;
6374;SDS011;35400;45.472;-122.822;2022-12-29T03:15:18;3.77;;;1.57;;
6374;SDS011;35400;45.472;-122.822;2022-12-29T03:23:24;3.97;;;1.33;;
6374;SDS011;35400;45.472;-122.822;2022-12-29T03:25:54;2.33;;;1.60;;
6374;SDS011;35400;45.472;-122.822;2022-12-29T03:29:07;3.30;;;1.63;;
6374;SDS011;35400;45.472;-122.822;2022-12-29T03:31:22;3.10;;;1.70;;
6374;SDS011;35400;45.472;-122.822;2022-12-29T03:33:52;4.73;;;1.50;;
6374;SDS011;35400;45.472;-122.822;2022-12-29T03:36:26;3.50;;;1.60;;
6374;SDS011;35400;45.472;-122.822;2022-12-29T03:39:06;4.63;;;1.50;;
6374;SDS011;35400;45.472;-122.822;2022-12-29T03:41:37;6.70;;;1.80;;
6374;SDS011;35400;45.472;-122.822;2022-12-29T03:44:08;1.60;;;1.30;;
6374;SDS011;35400;45.472;-122.822;2022-12-29T03:46:37;3.90;;;1.67;;
6374;SDS011;35400;45.472;-122.822;2022-12-29T03:49:04;5.60;;;1.85;;
6374;SDS011;35400;45.472;-122.822;2022-12-29T03:51:30;5.60;;;1.90;;
6374;SDS011;35400;45.472;-122.822;2022-12-29T03:53:57;6.00;;;1.93;;
6374;SDS011;35400;45.472;-122.822;2022-12-29T03:56:24;4.90;;;2.30;;
6374;SDS011;35400;45.472;-122.822;2022-12-29T04:01:26;5.90;;;2.00;;
6374;SDS011;35400;45.472;-122.822;2022-12-29T04:03:53;3.07;;;2.07;;
6374;SDS011;35400;45.472;-122.822;2022-12-29T04:06:20;4.37;;;1.90;;
6374;SDS011;35400;45.472;-122.822;2022-12-29T04:08:56;4.60;;;2.00;;
6374;SDS011;35400;45.472;-122.822;2022-12-29T04:11:24;4.10;;;2.35;;
6374;SDS011;35400;45.472;-122.822;2022-12-29T04:13:51;6.03;;;2.40;;
6374;SDS011;35400;45.472;-122.822;2022-12-29T04:16:22;4.80;;;2.50;;
6374;SDS011;35400;45.472;-122.822;2022-12-29T04:18:49;4.80;;;2.30;;
6374;SDS011;35400;45.472;-122.822;2022-12-29T04:21:16;3.90;;;1.70;;
6374;SDS011;35400;45.472;-122.822;2022-12-29T04:23:43;2.70;;;2.00;;
6374;SDS011;35400;45.472;-122.822;2022-12-29T04:26:11;7.70;;;2.40;;
6374;SDS011;35400;45.472;-122.822;2022-12-29T04:29:07;5.60;;;3.00;;
6374;SDS011;35400;45.472;-122.822;2022-12-29T04:31:53;8.90;;;4.25;;
6374;SDS011;35400;45.472;-122.822;2022-12-29T04:34:21;6.57;;;3.97;;
6374;SDS011;35400;45.472;-122.822;2022-12-29T04:36:48;6.50;;;4.15;;
6374;SDS011;35400;45.472;-122.822;2022-12-29T04:39:15;4.63;;;4.03;;
6374;SDS011;35400;45.472;-122.822;2022-12-29T04:41:42;10.00;;;6.05;;
6374;SDS011;35400;45.472;-122.822;2022-12-29T04:44:15;10.73;;;6.43;;
6374;SDS011;35400;45.472;-122.822;2022-12-29T04:47:20;11.90;;;7.70;;
6374;SDS011;35400;45.472;-122.822;2022-12-29T05:07:21;5.90;;;3.70;;
6374;SDS011;35400;45.472;-122.822;2022-12-29T05:47:44;6.60;;;4.70;;
6374;SDS011;35400;45.472;-122.822;2022-12-29T07:57:20;4.40;;;3.40;;
6374;SDS011;35400;45.472;-122.822;2022-12-29T08:04:40;5.75;;;4.40;;
6374;SDS011;35400;45.472;-122.822;2022-12-29T08:07:06;6.73;;;4.37;;
6374;SDS011;35400;45.472;-122.822;2022-12-29T08:09:33;4.93;;;3.80;;
6374;SDS011;35400;45.472;-122.822;2022-12-29T08:12:00;5.43;;;3.93;;
6374;SDS011;35400;45.472;-122.822;2022-12-29T08:14:27;5.37;;;3.80;;
6374;SDS011;35400;45.472;-122.822;2022-12-29T08:16:54;7.03;;;3.90;;
6374;SDS011;35400;45.472;-122.822;2022-12-29T08:19:21;5.60;;;4.05;;
6374;SDS011;35400;45.472;-122.822;2022-12-29T09:37:42;5.07;;;2.97;;
6374;SDS011;35400;45.472;-122.822;2022-12-29T09:40:21;5.60;;;3.23;;
6374;SDS011;35400;45.472;-122.822;2022-12-29T17:44:44;1.83;;;1.60;;
6374;SDS011;35400;45.472;-122.822;2022-12-29T17:47:11;1.93;;;1.43;;
6374;SDS011;35400;45.472;-122.822;2022-12-29T17:49:40;3.43;;;1.33;;
6374;SDS011;35400;45.472;-122.822;2022-12-29T17:52:13;2.60;;;1.77;;
6374;SDS011;35400;45.472;-122.822;2022-12-29T17:54:44;1.87;;;1.57;;
6374;SDS011;35400;45.472;-122.822;2022-12-29T17:57:14;2.03;;;1.37;;
6374;SDS011;35400;45.472;-122.822;2022-12-29T17:59:44;1.57;;;1.47;;
6374;SDS011;35400;45.472;-122.822;2022-12-29T18:02:32;2.00;;;1.67;;
6374;SDS011;35400;45.472;-122.822;2022-12-29T18:04:58;1.80;;;1.50;;
6374;SDS011;35400;45.472;-122.822;2022-12-29T18:07:26;1.83;;;1.60;;
6374;SDS011;35400;45.472;-122.822;2022-12-29T18:09:54;1.70;;;1.60;;
6374;SDS011;35400;45.472;-122.822;2022-12-29T18:12:26;2.00;;;1.67;;
6374;SDS011;35400;45.472;-122.822;2022-12-29T18:15:05;2.47;;;1.70;;
6374;SDS011;35400;45.472;-122.822;2022-12-29T18:17:37;1.53;;;1.43;;
6374;SDS011;35400;45.472;-122.822;2022-12-29T18:20:04;1.63;;;1.53;;
6374;SDS011;35400;45.472;-122.822;2022-12-29T18:22:31;2.53;;;1.40;;
6374;SDS011;35400;45.472;-122.822;2022-12-29T18:24:58;1.50;;;1.40;;
6374;SDS011;35400;45.472;-122.822;2022-12-29T18:27:26;1.70;;;1.40;;
6374;SDS011;35400;45.472;-122.822;2022-12-29T18:29:53;1.30;;;1.20;;
6374;SDS011;35400;45.472;-122.822;2022-12-29T18:32:20;2.47;;;1.70;;
6374;SDS011;35400;45.472;-122.822;2022-12-29T18:34:47;3.03;;;1.67;;
6374;SDS011;35400;45.472;-122.822;2022-12-29T18:37:14;1.60;;;1.47;;
6374;SDS011;35400;45.472;-122.822;2022-12-29T18:39:40;1.63;;;1.53;;
6374;SDS011;35400;45.472;-122.822;2022-12-29T18:42:08;2.83;;;1.70;;
6374;SDS011;35400;45.472;-122.822;2022-12-29T18:44:41;2.87;;;1.93;;
6374;SDS011;35400;45.472;-122.822;2022-12-29T18:47:07;2.07;;;1.47;;
6374;SDS011;35400;45.472;-122.822;2022-12-29T18:49:34;2.67;;;1.73;;
6374;SDS011;35400;45.472;-122.822;2022-12-29T18:52:01;2.67;;;1.80;;
6374;SDS011;35400;45.472;-122.822;2022-12-29T18:54:29;2.63;;;1.80;;
6374;SDS011;35400;45.472;-122.822;2022-12-29T18:56:57;3.20;;;2.07;;
6374;SDS011;35400;45.472;-122.822;2022-12-29T18:59:25;2.47;;;1.50;;
6374;SDS011;35400;45.472;-122.822;2022-12-29T19:01:52;2.20;;;2.07;;
6374;SDS011;35400;45.472;-122.822;2022-12-29T19:04:19;2.73;;;2.27;;
6374;SDS011;35400;45.472;-122.822;2022-12-29T19:06:47;2.10;;;1.93;;
6374;SDS011;35400;45.472;-122.822;2022-12-29T19:09:14;4.00;;;2.57;;
6374;SDS011;35400;45.472;-122.822;2022-12-29T19:11:40;2.23;;;2.03;;
6374;SDS011;35400;45.472;-122.822;2022-12-29T19:14:12;2.27;;;2.07;;
6374;SDS011;35400;45.472;-122.822;2022-12-29T19:16:44;2.50;;;2.00;;
6374;SDS011;35400;45.472;-122.822;2022-12-29T19:19:14;2.40;;;2.17;;
6374;SDS011;35400;45.472;-122.822;2022-12-29T19:21:42;1.90;;;1.80;;
6374;SDS011;35400;45.472;-122.822;2022-12-29T19:24:10;2.13;;;1.93;;
6374;SDS011;35400;45.472;-122.822;2022-12-29T19:26:37;1.93;;;1.77;;
6374;SDS011;35400;45.472;-122.822;2022-12-29T19:29:06;2.63;;;2.33;;
6374;SDS011;35400;45.472;-122.822;2022-12-29T19:31:37;4.00;;;2.67;;
6374;SDS011;35400;45.472;-122.822;2022-12-29T19:34:04;2.30;;;2.10;;
6374;SDS011;35400;45.472;-122.822;2022-12-29T19:36:31;3.17;;;2.60;;
6374;SDS011;35400;45.472;-122.822;2022-12-29T19:38:58;2.47;;;2.27;;
6374;SDS011;35400;45.472;-122.822;2022-12-29T19:41:25;2.50;;;2.30;;
6374;SDS011;35400;45.472;-122.822;2022-12-29T19:43:52;2.47;;;2.27;;
6374;SDS011;35400;45.472;-122.822;2022-12-29T19:46:19;2.70;;;2.50;;
6374;SDS011;35400;45.472;-122.822;2022-12-29T19:48:46;2.17;;;2.00;;
6374;SDS011;35400;45.472;-122.822;2022-12-29T19:51:14;2.23;;;2.03;;
6374;SDS011;35400;45.472;-122.822;2022-12-29T19:53:42;2.13;;;1.93;;
6374;SDS011;35400;45.472;-122.822;2022-12-29T19:56:09;2.50;;;2.30;;
6374;SDS011;35400;45.472;-122.822;2022-12-29T19:58:37;2.13;;;1.73;;
6374;SDS011;35400;45.472;-122.822;2022-12-29T20:01:05;2.43;;;1.83;;
6374;SDS011;35400;45.472;-122.822;2022-12-29T20:03:37;2.43;;;2.23;;
6374;SDS011;35400;45.472;-122.822;2022-12-29T20:06:05;2.00;;;1.80;;
6374;SDS011;35400;45.472;-122.822;2022-12-29T20:08:34;2.17;;;2.00;;
6374;SDS011;35400;45.472;-122.822;2022-12-29T20:11:06;2.30;;;2.10;;
6374;SDS011;35400;45.472;-122.822;2022-12-29T20:13:36;2.40;;;2.20;;
6374;SDS011;35400;45.472;-122.822;2022-12-29T20:16:05;2.70;;;2.50;;
6374;SDS011;35400;45.472;-122.822;2022-12-29T20:18:34;2.50;;;2.30;;
6374;SDS011;35400;45.472;-122.822;2022-12-29T20:21:05;2.53;;;2.30;;
6374;SDS011;35400;45.472;-122.822;2022-12-29T20:23:33;2.40;;;2.20;;
6374;SDS011;35400;45.472;-122.822;2022-12-29T20:26:03;2.57;;;2.27;;
6374;SDS011;35400;45.472;-122.822;2022-12-29T20:28:30;2.20;;;2.10;;
6374;SDS011;35400;45.472;-122.822;2022-12-29T20:30:59;2.37;;;2.17;;
6374;SDS011;35400;45.472;-122.822;2022-12-29T20:33:29;2.83;;;2.00;;
6374;SDS011;35400;45.472;-122.822;2022-12-29T20:36:04;3.00;;;2.17;;
6374;SDS011;35400;45.472;-122.822;2022-12-29T20:38:52;1.63;;;1.50;;
6374;SDS011;35400;45.472;-122.822;2022-12-29T20:41:19;1.70;;;1.60;;
6374;SDS011;35400;45.472;-122.822;2022-12-29T20:43:48;1.83;;;1.73;;
6374;SDS011;35400;45.472;-122.822;2022-12-29T20:46:15;2.20;;;2.00;;
6374;SDS011;35400;45.472;-122.822;2022-12-29T20:48:42;2.20;;;2.00;;
6374;SDS011;35400;45.472;-122.822;2022-12-29T20:51:09;2.23;;;2.03;;
6374;SDS011;35400;45.472;-122.822;2022-12-29T20:53:37;2.10;;;1.90;;
6374;SDS011;35400;45.472;-122.822;2022-12-29T20:56:06;2.17;;;1.87;;
6374;SDS011;35400;45.472;-122.822;2022-12-29T20:58:36;1.87;;;1.73;;
6374;SDS011;35400;45.472;-122.822;2022-12-29T21:01:03;3.23;;;1.80;;
6374;SDS011;35400;45.472;-122.822;2022-12-29T21:03:32;2.80;;;1.97;;
6374;SDS011;35400;45.472;-122.822;2022-12-29T21:06:00;2.47;;;2.27;;
6374;SDS011;35400;45.472;-122.822;2022-12-29T21:08:28;1.83;;;1.67;;
6374;SDS011;35400;45.472;-122.822;2022-12-29T21:10:55;2.47;;;2.27;;
6374;SDS011;35400;45.472;-122.822;2022-12-29T21:13:26;3.03;;;2.30;;
6374;SDS011;35400;45.472;-122.822;2022-12-29T21:16:00;2.60;;;1.93;;
6374;SDS011;35400;45.472;-122.822;2022-12-29T21:18:29;3.23;;;1.63;;
6374;SDS011;35400;45.472;-122.822;2022-12-29T21:21:00;2.00;;;1.90;;
6374;SDS011;35400;45.472;-122.822;2022-12-29T21:23:30;2.57;;;2.00;;
6374;SDS011;35400;45.472;-122.822;2022-12-29T21:25:56;2.70;;;1.87;;
6374;SDS011;35400;45.472;-122.822;2022-12-29T21:28:25;2.30;;;1.90;;
6374;SDS011;35400;45.472;-122.822;2022-12-29T21:30:52;2.00;;;1.80;;
6374;SDS011;35400;45.472;-122.822;2022-12-29T21:33:22;4.80;;;2.30;;
6374;SDS011;35400;45.472;-122.822;2022-12-29T21:35:49;3.30;;;2.10;;
6374;SDS011;35400;45.472;-122.822;2022-12-29T21:38:15;1.97;;;1.87;;
6374;SDS011;35400;45.472;-122.822;2022-12-29T21:40:42;3.60;;;2.00;;
6374;SDS011;35400;45.472;-122.822;2022-12-29T21:43:09;2.90;;;2.70;;
6374;SDS011;35400;45.472;-122.822;2022-12-29T21:45:39;5.67;;;3.63;;
6374;SDS011;35400;45.472;-122.822;2022-12-29T21:48:06;4.90;;;3.43;;
6374;SDS011;35400;45.472;-122.822;2022-12-29T21:50:54;3.43;;;3.13;;
6374;SDS011;35400;45.472;-122.822;2022-12-29T21:53:42;3.07;;;2.83;;
6374;SDS011;35400;45.472;-122.822;2022-12-29T21:56:14;2.70;;;2.40;;
6374;SDS011;35400;45.472;-122.822;2022-12-29T21:58:44;4.83;;;2.83;;
6374;SDS011;35400;45.472;-122.822;2022-12-29T22:01:31;3.10;;;2.80;;
6374;SDS011;35400;45.472;-122.822;2022-12-29T22:04:20;3.47;;;3.17;;
6374;SDS011;35400;45.472;-122.822;2022-12-29T22:07:07;3.17;;;2.87;;
6374;SDS011;35400;45.472;-122.822;2022-12-29T22:09:54;4.83;;;3.00;;
6374;SDS011;35400;45.472;-122.822;2022-12-29T22:12:39;3.13;;;2.83;;
6374;SDS011;35400;45.472;-122.822;2022-12-29T22:15:29;4.17;;;3.73;;
6374;SDS011;35400;45.472;-122.822;2022-12-29T22:17:58;4.47;;;3.90;;
6374;SDS011;35400;45.472;-122.822;2022-12-29T22:20:27;3.43;;;3.10;;
6374;SDS011;35400;45.472;-122.822;2022-12-29T22:22:55;3.57;;;3.27;;
6374;SDS011;35400;45.472;-122.822;2022-12-29T22:25:23;4.43;;;3.23;;
6374;SDS011;35400;45.472;-122.822;2022-12-29T22:27:50;3.67;;;2.97;;
6374;SDS011;35400;45.472;-122.822;2022-12-29T22:30:17;3.37;;;3.07;;
6374;SDS011;35400;45.472;-122.822;2022-12-29T22:32:45;3.77;;;3.30;;
6374;SDS011;35400;45.472;-122.822;2022-12-29T22:35:12;3.27;;;2.93;;
6374;SDS011;35400;45.472;-122.822;2022-12-29T22:37:39;3.27;;;2.90;;
6374;SDS011;35400;45.472;-122.822;2022-12-29T22:40:08;3.33;;;3.10;;
6374;SDS011;35400;45.472;-122.822;2022-12-29T22:42:37;2.83;;;2.60;;
6374;SDS011;35400;45.472;-122.822;2022-12-29T22:45:04;3.70;;;2.77;;
6374;SDS011;35400;45.472;-122.822;2022-12-29T22:47:32;2.97;;;2.73;;
6374;SDS011;35400;45.472;-122.822;2022-12-29T22:49:59;4.13;;;3.00;;
6374;SDS011;35400;45.472;-122.822;2022-12-29T22:52:27;4.07;;;2.70;;
6374;SDS011;35400;45.472;-122.822;2022-12-29T22:54:54;3.33;;;2.80;;
6374;SDS011;35400;45.472;-122.822;2022-12-29T22:57:21;4.27;;;2.20;;
6374;SDS011;35400;45.472;-122.822;2022-12-29T22:59:48;1.87;;;1.70;;
6374;SDS011;35400;45.472;-122.822;2022-12-29T23:02:15;2.87;;;2.27;;
6374;SDS011;35400;45.472;-122.822;2022-12-29T23:04:42;2.60;;;1.83;;
6374;SDS011;35400;45.472;-122.822;2022-12-29T23:07:09;1.87;;;1.67;;
6374;SDS011;35400;45.472;-122.822;2022-12-29T23:09:36;2.23;;;1.70;;
6374;SDS011;35400;45.472;-122.822;2022-12-29T23:12:03;1.70;;;1.60;;
6374;SDS011;35400;45.472;-122.822;2022-12-29T23:14:30;1.50;;;1.27;;
6374;SDS011;35400;45.472;-122.822;2022-12-29T23:16:57;1.67;;;1.30;;
6374;SDS011;35400;45.472;-122.822;2022-12-29T23:19:24;0.80;;;0.80;;
6374;SDS011;35400;45.472;-122.822;2022-12-29T23:21:51;0.60;;;0.60;;
6374;SDS011;35400;45.472;-122.822;2022-12-29T23:24:18;0.70;;;0.60;;
6374;SDS011;35400;45.472;-122.822;2022-12-29T23:26:45;1.07;;;0.53;;
6374;SDS011;35400;45.472;-122.822;2022-12-29T23:29:14;0.50;;;0.50;;
6374;SDS011;35400;45.472;-122.822;2022-12-29T23:31:42;0.53;;;0.47;;
6374;SDS011;35400;45.472;-122.822;2022-12-29T23:34:10;0.97;;;0.50;;
6374;SDS011;35400;45.472;-122.822;2022-12-29T23:36:42;0.50;;;0.50;;
6374;SDS011;35400;45.472;-122.822;2022-12-29T23:39:09;0.40;;;0.37;;
6374;SDS011;35400;45.472;-122.822;2022-12-29T23:41:45;0.60;;;0.50;;
6374;SDS011;35400;45.472;-122.822;2022-12-29T23:44:12;0.40;;;0.40;;
6374;SDS011;35400;45.472;-122.822;2022-12-29T23:46:39;2.03;;;0.33;;
6374;SDS011;35400;45.472;-122.822;2022-12-29T23:49:07;0.40;;;0.40;;
6374;SDS011;35400;45.472;-122.822;2022-12-29T23:51:35;1.10;;;0.40;;
6374;SDS011;35400;45.472;-122.822;2022-12-29T23:54:02;3.27;;;0.50;;
6374;SDS011;35400;45.472;-122.822;2022-12-29T23:56:29;0.67;;;0.53;;
6374;SDS011;35400;45.472;-122.822;2022-12-29T23:58:56;1.07;;;0.87;;
